createdAt,value
2024-04-05T00:02:09.879Z,3.50
2024-04-05T00:04:40.096Z,3.08
2024-04-05T00:07:12.490Z,5.05
2024-04-05T00:09:41.563Z,3.80
2024-04-05T00:12:12.262Z,7.13
2024-04-05T00:14:40.143Z,6.88
2024-04-05T00:17:35.862Z,6.85
2024-04-05T00:20:03.371Z,5.07
2024-04-05T00:22:36.149Z,4.97
2024-04-05T00:25:03.662Z,5.47
2024-04-05T00:27:36.159Z,4.85
2024-04-05T00:30:08.870Z,3.90
2024-04-05T00:32:39.008Z,4.57
2024-04-05T00:35:08.708Z,4.95
2024-04-05T00:37:42.479Z,5.10
2024-04-05T00:40:10.519Z,7.03
2024-04-05T00:43:06.862Z,9.30
2024-04-05T00:45:35.333Z,4.40
2024-04-05T00:48:34.155Z,3.60
2024-04-05T00:51:04.044Z,5.25
2024-04-05T00:53:41.169Z,6.45
2024-04-05T00:56:08.789Z,4.85
2024-04-05T00:58:47.893Z,5.13
2024-04-05T01:01:17.158Z,4.00
2024-04-05T01:04:12.702Z,5.65
2024-04-05T01:06:43.753Z,6.55
2024-04-05T01:09:14.325Z,7.75
2024-04-05T01:11:41.108Z,5.28
2024-04-05T01:14:16.605Z,6.40
2024-04-05T01:16:49.526Z,4.15
2024-04-05T01:19:26.536Z,6.68
2024-04-05T01:21:57.111Z,6.97
2024-04-05T01:24:27.204Z,3.45
2024-04-05T01:26:55.105Z,3.05
2024-04-05T01:29:23.160Z,8.18
2024-04-05T01:31:56.280Z,4.93
2024-04-05T01:34:24.499Z,5.00
2024-04-05T01:36:55.325Z,4.68
2024-04-05T01:39:24.625Z,4.35
2024-04-05T01:42:20.946Z,2.28
2024-04-05T01:44:48.794Z,4.40
2024-04-05T01:48:01.144Z,5.22
2024-04-05T01:50:32.314Z,7.78
2024-04-05T01:52:59.140Z,8.93
2024-04-05T01:55:29.679Z,6.72
2024-04-05T01:58:01.271Z,4.72
2024-04-05T02:00:31.851Z,3.33
2024-04-05T02:03:02.204Z,5.57
2024-04-05T02:05:29.827Z,5.07
2024-04-05T02:07:57.254Z,3.95
2024-04-05T02:10:24.940Z,8.18
2024-04-05T02:12:53.191Z,5.63
2024-04-05T02:15:23.021Z,5.28
2024-04-05T02:17:53.158Z,5.97
2024-04-05T02:20:21.002Z,4.47
2024-04-05T02:22:52.078Z,3.03
2024-04-05T02:25:19.892Z,6.75
2024-04-05T02:27:50.248Z,3.70
2024-04-05T02:30:25.047Z,7.75
2024-04-05T02:32:52.188Z,4.05
2024-04-05T02:35:20.117Z,3.90
2024-04-05T02:37:50.214Z,7.10
2024-04-05T02:40:25.340Z,2.40
2024-04-05T02:43:20.928Z,7.20
2024-04-05T02:46:07.970Z,28.05
2024-04-05T02:49:03.686Z,46.75
2024-04-05T02:51:35.162Z,38.95
2024-04-05T02:54:06.904Z,32.30
2024-04-05T02:56:34.825Z,22.77
2024-04-05T03:08:40.879Z,18.27
2024-04-05T03:11:08.725Z,12.85
2024-04-05T03:13:36.389Z,8.55
2024-04-05T03:16:04.677Z,7.97
2024-04-05T03:18:34.070Z,8.43
2024-04-05T03:21:07.610Z,3.13
2024-04-05T03:23:38.304Z,8.05
2024-04-05T03:26:57.436Z,3.05
2024-04-05T03:29:28.275Z,7.18
2024-04-05T03:35:19.848Z,6.57
2024-04-05T03:37:54.367Z,10.10
2024-04-05T03:40:24.432Z,9.73
2024-04-05T03:42:54.335Z,8.93
2024-04-05T03:45:22.245Z,7.40
2024-04-05T03:47:54.450Z,10.50
2024-04-05T03:50:22.728Z,8.32
2024-04-05T03:52:53.065Z,8.90
2024-04-05T03:55:26.854Z,6.32
2024-04-05T03:57:57.388Z,12.00
2024-04-05T04:00:24.798Z,6.32
2024-04-05T04:02:53.182Z,7.72
2024-04-05T04:05:21.268Z,5.45
2024-04-05T04:07:48.633Z,12.35
2024-04-05T04:10:21.010Z,7.80
2024-04-05T04:12:48.666Z,5.57
2024-04-05T04:15:16.320Z,5.95
2024-04-05T04:17:43.482Z,7.03
2024-04-05T04:20:12.807Z,14.73
2024-04-05T04:23:11.841Z,11.65
2024-04-05T04:25:43.874Z,10.98
2024-04-05T04:28:13.967Z,8.82
2024-04-05T04:30:51.994Z,7.80
2024-04-05T04:33:19.210Z,6.35
2024-04-05T04:35:49.272Z,11.05
2024-04-05T04:38:16.380Z,8.73
2024-04-05T04:40:45.074Z,15.38
2024-04-05T04:43:16.540Z,12.40
2024-04-05T04:45:46.121Z,13.00
2024-04-05T04:48:15.964Z,9.13
2024-04-05T04:50:46.106Z,18.45
2024-04-05T04:53:13.523Z,21.80
2024-04-05T04:55:43.442Z,19.10
2024-04-05T04:58:19.118Z,14.88
2024-04-05T05:00:56.287Z,19.50
2024-04-05T05:03:23.885Z,12.27
2024-04-05T05:05:53.276Z,9.85
2024-04-05T05:08:20.306Z,7.95
2024-04-05T05:10:53.024Z,8.05
2024-04-05T05:13:22.242Z,8.00
2024-04-05T05:15:51.787Z,10.77
2024-04-05T05:18:18.773Z,13.43
2024-04-05T05:20:52.502Z,8.82
2024-04-05T05:23:21.774Z,12.00
2024-04-05T05:25:51.870Z,13.07
2024-04-05T05:28:23.362Z,10.82
2024-04-05T05:30:53.098Z,8.60
2024-04-05T05:33:32.184Z,5.78
2024-04-05T05:36:02.655Z,5.93
2024-04-05T05:38:29.569Z,7.35
2024-04-05T05:41:04.301Z,7.55
2024-04-05T05:43:31.412Z,6.05
2024-04-05T05:45:59.904Z,6.55
2024-04-05T05:48:28.242Z,8.65
2024-04-05T05:51:05.328Z,5.95
2024-04-05T05:53:32.188Z,7.30
2024-04-05T05:56:02.401Z,12.43
2024-04-05T05:58:39.157Z,6.13
2024-04-05T06:01:22.434Z,7.22
2024-04-05T06:04:19.807Z,7.47
2024-04-05T06:09:14.913Z,8.68
2024-04-05T06:11:48.769Z,10.55
2024-04-05T06:14:18.263Z,11.43
2024-04-05T06:16:45.474Z,8.85
2024-04-05T06:19:17.121Z,8.15
2024-04-05T06:21:44.703Z,9.33
2024-04-05T06:24:14.984Z,11.32
2024-04-05T06:26:44.954Z,9.88
2024-04-05T06:29:12.283Z,14.07
2024-04-05T06:31:39.716Z,10.80
2024-04-05T06:34:09.878Z,10.98
2024-04-05T06:36:38.741Z,10.15
2024-04-05T06:39:09.476Z,10.02
2024-04-05T06:41:37.254Z,12.35
2024-04-05T06:44:04.414Z,8.38
2024-04-05T06:46:31.706Z,9.27
2024-04-05T06:48:58.556Z,11.20
2024-04-05T06:51:27.770Z,10.57
2024-04-05T06:53:56.039Z,10.27
2024-04-05T06:56:25.820Z,8.57
2024-04-05T06:58:54.814Z,9.48
2024-04-05T07:10:54.008Z,13.15
2024-04-05T07:13:21.254Z,7.97
2024-04-05T07:15:51.454Z,10.80
2024-04-05T07:18:25.316Z,11.07
2024-04-05T07:20:57.012Z,4.82
2024-04-05T07:23:24.770Z,6.40
2024-04-05T07:25:56.291Z,6.57
2024-04-05T07:28:24.016Z,6.67
2024-04-05T07:30:54.473Z,2.80
2024-04-05T07:33:28.215Z,6.53
2024-04-05T07:35:58.258Z,6.35
2024-04-05T07:38:30.561Z,5.05
2024-04-05T07:41:07.203Z,4.95
2024-04-05T07:43:36.645Z,3.50
2024-04-05T07:46:04.490Z,5.10
2024-04-05T07:48:32.029Z,3.20
2024-04-05T07:51:04.835Z,3.97
2024-04-05T07:53:59.686Z,3.72
2024-04-05T07:56:27.648Z,4.53
2024-04-05T07:58:56.263Z,2.38
2024-04-05T08:01:24.300Z,2.22
2024-04-05T08:03:53.691Z,3.28
2024-04-05T08:06:26.459Z,3.80
2024-04-05T08:08:55.530Z,4.18
2024-04-05T08:11:23.432Z,4.00
2024-04-05T08:13:52.355Z,4.47
2024-04-05T08:16:23.356Z,5.13
2024-04-05T08:18:53.064Z,5.40
2024-04-05T08:21:22.132Z,4.03
2024-04-05T08:23:49.861Z,11.38
2024-04-05T08:26:16.751Z,4.93
2024-04-05T08:28:44.662Z,11.75
2024-04-05T08:31:11.501Z,6.00
2024-04-05T08:33:40.953Z,11.48
2024-04-05T08:36:08.440Z,2.72
2024-04-05T08:38:36.654Z,4.18
2024-04-05T08:41:13.213Z,6.50
2024-04-05T08:43:43.568Z,3.33
2024-04-05T08:46:12.428Z,45.63
2024-04-05T08:48:49.270Z,60.40
2024-04-05T08:51:19.331Z,6.05
2024-04-05T08:53:46.278Z,3.03
2024-04-05T08:56:14.653Z,4.65
2024-04-05T08:58:51.464Z,4.05
2024-04-05T09:01:31.305Z,2.08
2024-04-05T09:03:58.467Z,3.97
2024-04-05T09:06:26.862Z,2.78
2024-04-05T09:09:05.214Z,6.15
2024-04-05T09:11:32.929Z,8.25
2024-04-05T09:14:05.137Z,3.88
2024-04-05T09:19:08.943Z,4.93
2024-04-05T09:21:48.461Z,5.07
2024-04-05T09:24:18.374Z,4.53
2024-04-05T09:26:45.820Z,7.03
2024-04-05T09:29:14.513Z,2.15
2024-04-05T09:31:48.728Z,4.43
2024-04-05T09:34:19.268Z,1.63
2024-04-05T09:36:49.727Z,3.22
2024-04-05T09:39:22.345Z,3.90
2024-04-05T09:41:51.291Z,4.97
2024-04-05T09:44:25.748Z,4.57
2024-04-05T09:46:55.968Z,4.10
2024-04-05T09:49:48.649Z,2.92
2024-04-05T09:55:23.823Z,5.73
2024-04-05T09:57:54.256Z,4.47
2024-04-05T10:00:28.389Z,3.47
2024-04-05T10:02:59.996Z,5.65
2024-04-05T10:05:35.582Z,4.35
2024-04-05T10:08:13.823Z,4.07
2024-04-05T10:10:47.463Z,2.60
2024-04-05T10:13:15.862Z,3.03
2024-04-05T10:16:01.135Z,3.38
2024-04-05T10:18:35.601Z,5.63
2024-04-05T10:21:04.642Z,2.28
2024-04-05T10:24:00.550Z,3.22
2024-04-05T10:26:55.509Z,1.80
2024-04-05T10:30:07.076Z,5.07
2024-04-05T10:33:02.461Z,2.13
2024-04-05T10:35:31.199Z,3.72
2024-04-05T10:38:19.217Z,2.42
2024-04-05T10:41:02.003Z,1.02
2024-04-05T10:43:29.361Z,3.47
2024-04-05T10:45:58.945Z,3.40
2024-04-05T10:48:26.525Z,1.85
2024-04-05T10:50:54.720Z,2.60
2024-04-05T10:53:51.637Z,2.92
2024-04-05T10:56:20.248Z,3.53
2024-04-05T10:58:49.123Z,2.38
2024-04-05T11:01:45.550Z,2.13
2024-04-05T11:04:13.404Z,3.05
2024-04-05T11:06:59.439Z,2.40
2024-04-05T11:09:36.805Z,4.05
2024-04-05T11:12:30.560Z,3.42
2024-04-05T11:15:29.939Z,1.63
2024-04-05T11:18:10.718Z,2.78
2024-04-05T11:20:43.930Z,0.80
2024-04-05T11:23:20.490Z,4.38
2024-04-05T11:26:24.697Z,2.13
2024-04-05T11:28:59.626Z,3.40
2024-04-05T11:31:29.016Z,2.08
2024-04-05T11:34:07.438Z,1.58
2024-04-05T11:36:39.657Z,3.15
2024-04-05T11:39:09.433Z,2.83
2024-04-05T11:47:50.923Z,2.47
2024-04-05T11:50:29.250Z,1.80
2024-04-05T11:52:58.723Z,2.50
2024-04-05T11:55:26.378Z,2.15
2024-04-05T11:57:54.036Z,1.38
2024-04-05T12:00:23.797Z,3.28
2024-04-05T12:05:43.713Z,1.23
2024-04-05T12:11:03.487Z,1.52
2024-04-05T12:13:49.975Z,1.65
2024-04-05T12:16:16.747Z,4.25
2024-04-05T12:18:50.755Z,0.93
2024-04-05T12:21:45.034Z,2.63
2024-04-05T12:24:13.747Z,7.32
2024-04-05T12:27:57.195Z,3.88
2024-04-05T12:31:24.558Z,3.17
2024-04-05T12:34:16.564Z,2.33
2024-04-05T12:37:00.206Z,1.52
2024-04-05T12:39:32.976Z,1.73
2024-04-05T12:42:06.504Z,3.20
2024-04-05T12:44:44.869Z,2.40
2024-04-05T12:47:33.907Z,1.55
2024-04-05T12:50:13.129Z,1.85
2024-04-05T12:53:01.009Z,1.77
2024-04-05T12:55:39.249Z,1.75
2024-04-05T12:58:20.507Z,3.47
2024-04-05T13:03:58.099Z,1.77
2024-04-05T13:06:50.718Z,3.88
2024-04-05T13:16:18.944Z,1.20
2024-04-05T13:19:38.136Z,1.77
2024-04-05T13:22:25.937Z,1.70
2024-04-05T13:25:22.050Z,2.35
2024-04-05T13:27:54.798Z,2.10
2024-04-05T13:30:43.393Z,1.92
2024-04-05T13:33:25.277Z,1.83
2024-04-05T13:36:27.263Z,2.85
2024-04-05T13:39:28.502Z,3.53
2024-04-05T13:42:24.186Z,1.13
2024-04-05T13:45:10.987Z,3.15
2024-04-05T13:48:24.425Z,2.05
2024-04-05T13:51:28.076Z,1.85
2024-04-05T13:54:46.103Z,3.15
2024-04-05T13:57:38.348Z,3.15
2024-04-05T14:00:28.731Z,3.15
2024-04-05T14:03:32.117Z,2.05
2024-04-05T14:06:40.693Z,3.08
2024-04-05T14:09:38.537Z,1.73
2024-04-05T14:12:55.220Z,2.85
2024-04-05T14:16:08.531Z,1.40
2024-04-05T14:22:27.288Z,2.95
2024-04-05T14:25:06.411Z,3.13
2024-04-05T14:27:34.151Z,3.35
2024-04-05T14:30:06.423Z,2.90
2024-04-05T14:32:33.319Z,4.80
2024-04-05T14:35:00.341Z,2.10
2024-04-05T14:37:33.972Z,2.53
2024-04-05T14:40:05.710Z,3.22
2024-04-05T14:42:32.661Z,2.33
2024-04-05T14:44:59.559Z,3.08
2024-04-05T14:47:26.625Z,3.72
2024-04-05T14:49:54.555Z,8.68
2024-04-05T14:52:23.485Z,4.20
2024-04-05T14:54:51.205Z,1.20
2024-04-05T14:57:18.417Z,5.25
2024-04-05T14:59:49.767Z,2.25
2024-04-05T15:02:16.812Z,4.47
2024-04-05T15:04:46.304Z,1.30
2024-04-05T15:07:13.839Z,1.90
2024-04-05T15:09:41.331Z,1.60
2024-04-05T15:12:11.252Z,5.53
2024-04-05T15:14:38.325Z,3.10
2024-04-05T15:17:05.324Z,2.08
2024-04-05T15:19:34.521Z,20.85
2024-04-05T15:22:01.355Z,8.07
2024-04-05T15:24:32.634Z,5.07
2024-04-05T15:26:59.834Z,5.22
2024-04-05T15:29:29.706Z,2.63
2024-04-05T15:32:02.701Z,2.42
2024-04-05T15:34:29.624Z,4.32
2024-04-05T15:36:56.366Z,2.13
2024-04-05T15:39:23.180Z,2.60
2024-04-05T15:41:50.206Z,1.38
2024-04-05T15:44:20.452Z,2.28
2024-04-05T15:46:58.038Z,2.22
2024-04-05T15:49:24.776Z,0.80
2024-04-05T15:51:56.579Z,1.42
2024-04-05T15:54:25.882Z,3.33
2024-04-05T15:57:00.991Z,3.67
2024-04-05T15:59:30.038Z,1.15
2024-04-05T16:01:56.732Z,2.25
2024-04-05T16:04:26.888Z,1.83
2024-04-05T16:06:55.794Z,3.90
2024-04-05T16:09:22.432Z,2.72
2024-04-05T16:11:53.765Z,5.50
2024-04-05T16:14:29.746Z,2.00
2024-04-05T16:16:59.566Z,3.58
2024-04-05T16:19:28.760Z,2.33
2024-04-05T16:21:55.370Z,3.15
2024-04-05T16:24:29.988Z,2.17
2024-04-05T16:26:56.800Z,3.25
2024-04-05T16:29:58.997Z,1.80
2024-04-05T16:32:28.318Z,2.10
2024-04-05T16:35:07.698Z,2.90
2024-04-05T16:37:41.087Z,2.60
2024-04-05T16:40:09.809Z,2.05
2024-04-05T16:42:38.982Z,2.25
2024-04-05T16:45:11.580Z,4.53
2024-04-05T16:47:39.631Z,2.85
2024-04-05T16:50:09.642Z,1.70
2024-04-05T16:52:38.159Z,5.68
2024-04-05T16:55:06.934Z,2.58
2024-04-05T16:57:38.810Z,5.50
2024-04-05T17:00:10.567Z,4.70
2024-04-05T17:02:45.090Z,1.23
2024-04-05T17:06:06.221Z,3.78
2024-04-05T17:08:35.793Z,2.90
2024-04-05T17:11:29.378Z,5.18
2024-04-05T17:14:23.170Z,4.45
2024-04-05T17:16:50.928Z,5.03
2024-04-05T17:19:20.787Z,10.00
2024-04-05T17:22:17.796Z,2.85
2024-04-05T17:24:48.389Z,2.67
2024-04-05T17:27:22.690Z,2.97
2024-04-05T17:29:50.579Z,2.72
2024-04-05T17:32:46.285Z,4.53
2024-04-05T17:35:17.195Z,3.30
2024-04-05T17:40:43.467Z,3.38
2024-04-05T17:43:16.338Z,2.50
2024-04-05T17:45:46.748Z,13.00
2024-04-05T17:48:13.790Z,4.13
2024-04-05T17:50:43.889Z,4.88
2024-04-05T17:53:28.910Z,6.05
2024-04-05T17:56:00.086Z,6.50
2024-04-05T17:58:28.164Z,6.40
2024-04-05T18:01:24.384Z,5.13
2024-04-05T18:04:26.153Z,3.72
2024-04-05T18:06:53.252Z,4.43
2024-04-05T18:09:20.761Z,6.70
2024-04-05T18:11:48.070Z,7.90
2024-04-05T18:14:15.687Z,6.80
2024-04-05T18:16:45.416Z,10.07
2024-04-05T18:19:18.223Z,8.30
2024-04-05T18:21:53.684Z,8.52
2024-04-05T18:24:49.145Z,7.57
2024-04-05T18:27:20.903Z,16.48
2024-04-05T18:29:49.420Z,16.73
2024-04-05T18:32:20.848Z,15.85
2024-04-05T18:34:48.070Z,12.00
2024-04-05T18:37:15.968Z,20.08
2024-04-05T18:39:44.673Z,12.68
2024-04-05T18:42:26.430Z,11.50
2024-04-05T18:44:55.675Z,8.00
2024-04-05T18:47:27.747Z,10.55
2024-04-05T18:49:56.130Z,10.85
2024-04-05T18:52:54.745Z,9.18
2024-04-05T18:55:26.042Z,6.75
2024-04-05T18:58:05.225Z,9.02
2024-04-05T19:00:34.879Z,6.90
2024-04-05T19:03:39.795Z,9.07
2024-04-05T19:06:13.130Z,6.68
2024-04-05T19:08:47.869Z,9.05
2024-04-05T19:11:15.899Z,11.82
2024-04-05T19:13:43.971Z,16.58
2024-04-05T19:16:15.475Z,10.05
2024-04-05T19:18:43.722Z,10.20
2024-04-05T19:21:12.081Z,11.85
2024-04-05T19:23:42.332Z,12.93
2024-04-05T19:27:04.295Z,10.68
2024-04-05T19:29:34.083Z,6.57
2024-04-05T19:32:05.646Z,10.75
2024-04-05T19:34:35.503Z,7.18
2024-04-05T19:37:13.598Z,9.73
2024-04-05T19:39:41.084Z,7.68
2024-04-05T19:42:11.450Z,10.13
2024-04-05T19:44:42.092Z,11.75
2024-04-05T19:47:10.707Z,12.13
2024-04-05T19:49:41.186Z,7.55
2024-04-05T19:52:14.622Z,5.03
2024-04-05T19:54:45.237Z,7.32
2024-04-05T19:57:11.950Z,6.35
2024-04-05T19:59:39.871Z,4.78
2024-04-05T20:02:07.635Z,5.15
2024-04-05T20:04:38.020Z,5.53
2024-04-05T20:07:04.665Z,4.72
2024-04-05T20:09:34.466Z,3.95
2024-04-05T20:12:53.605Z,25.42
2024-04-05T20:15:24.097Z,5.57
2024-04-05T20:17:52.660Z,7.25
2024-04-05T20:21:11.546Z,3.80
2024-04-05T20:24:29.497Z,7.60
2024-04-05T20:27:02.541Z,3.03
2024-04-05T20:29:52.498Z,4.35
2024-04-05T20:32:33.886Z,5.15
2024-04-05T20:35:04.318Z,4.93
2024-04-05T20:37:34.624Z,6.30
2024-04-05T20:40:04.285Z,8.88
2024-04-05T20:43:03.247Z,4.55
2024-04-05T20:45:31.516Z,5.88
2024-04-05T20:48:29.620Z,4.82
2024-04-05T20:50:57.460Z,4.22
2024-04-05T20:53:43.413Z,5.32
2024-04-05T20:56:10.121Z,2.97
2024-04-05T20:59:05.999Z,4.63
2024-04-05T21:01:33.608Z,6.40
2024-04-05T21:04:05.918Z,6.95
2024-04-05T21:06:33.715Z,5.55
2024-04-05T21:09:31.433Z,10.05
2024-04-05T21:12:02.469Z,5.88
2024-04-05T21:14:33.098Z,6.28
2024-04-05T21:17:04.610Z,5.75
2024-04-05T21:20:23.884Z,6.93
2024-04-05T21:23:42.622Z,7.60
2024-04-05T21:26:38.703Z,7.25
2024-04-05T21:29:07.424Z,6.13
2024-04-05T21:31:35.111Z,6.32
2024-04-05T21:34:02.952Z,7.35
2024-04-05T21:36:31.124Z,7.35
2024-04-05T21:38:58.975Z,6.28
2024-04-05T21:41:29.104Z,5.57
2024-04-05T21:43:55.878Z,5.13
2024-04-05T21:46:26.064Z,8.15
2024-04-05T21:48:54.267Z,7.40
2024-04-05T21:51:21.284Z,11.90
2024-04-05T21:53:53.315Z,4.97
2024-04-05T21:56:48.808Z,5.78
2024-04-05T21:59:16.704Z,3.55
2024-04-05T22:01:46.412Z,4.72
2024-04-05T22:07:06.163Z,4.93
2024-04-05T22:09:36.114Z,4.22
2024-04-05T22:12:28.224Z,4.72
2024-04-05T22:15:22.791Z,3.65
2024-04-05T22:17:49.680Z,9.98
2024-04-05T22:20:21.688Z,4.30
2024-04-05T22:22:53.056Z,7.18
2024-04-05T22:25:48.768Z,4.07
2024-04-05T22:28:16.799Z,5.45
2024-04-05T22:30:47.146Z,4.88
2024-04-05T22:33:14.091Z,5.18
2024-04-05T22:36:32.650Z,5.72
2024-04-05T22:39:16.816Z,5.50
2024-04-05T22:41:45.855Z,6.82
2024-04-05T22:44:44.156Z,7.20
2024-04-05T22:53:10.008Z,4.78
2024-04-05T22:55:36.872Z,4.80
2024-04-05T22:58:32.903Z,5.40
2024-04-05T23:01:04.724Z,3.65
2024-04-05T23:03:33.240Z,3.97
2024-04-05T23:06:03.163Z,2.67
2024-04-05T23:08:36.584Z,5.32
2024-04-05T23:11:07.476Z,3.67
2024-04-05T23:14:00.133Z,3.47
2024-04-05T23:16:27.891Z,7.07
2024-04-05T23:18:56.210Z,4.28
2024-04-05T23:21:23.842Z,3.08
2024-04-05T23:24:21.223Z,4.30
2024-04-05T23:26:50.583Z,4.75
2024-04-05T23:29:48.950Z,8.32
2024-04-05T23:32:19.886Z,4.95
2024-04-05T23:36:03.666Z,6.88
2024-04-05T23:38:36.701Z,6.88
2024-04-05T23:41:32.861Z,7.53
2024-04-05T23:44:03.569Z,9.45
2024-04-05T23:46:34.365Z,7.80
2024-04-05T23:49:03.767Z,5.20
2024-04-05T23:52:24.874Z,7.57
2024-04-05T23:55:20.942Z,5.50
2024-04-05T23:57:48.882Z,3.03
